Time;durP1;ratioP1;P1;durP2;ratioP2;P2;SDS_P1;SDS_P2;PMS_P1;PMS_P2;Temp;Humidity;BMP_temperature;BMP_pressure;BME280_temperature;BME280_humidity;BME280_pressure;Samples;Min_cycle;Max_cycle;Signal;HPM_P1;HPM_P2
2022/08/20 00:00:38;;;;;;;7.43;5.10;;;19.60;99.90;;;;;;5012193;28;20424;-80
2022/08/20 00:03:12;;;;;;;4.97;4.43;;;19.60;99.90;;;;;;5011685;28;20517;-80
2022/08/20 00:05:44;;;;;;;5.00;4.30;;;19.60;99.90;;;;;;5012088;28;20424;-79
2022/08/20 00:08:11;;;;;;;5.77;4.23;;;19.60;99.90;;;;;;5011939;28;20566;-79
2022/08/20 00:10:39;;;;;;;4.97;4.53;;;19.50;99.90;;;;;;4994085;28;20450;-79
2022/08/20 00:13:09;;;;;;;5.93;4.63;;;19.50;99.90;;;;;;5012223;28;20994;-79
2022/08/20 00:15:37;;;;;;;4.60;4.20;;;19.40;99.90;;;;;;5012025;28;20790;-79
2022/08/20 00:18:03;;;;;;;4.50;4.10;;;19.40;99.90;;;;;;4993877;28;20427;-79
2022/08/20 00:20:31;;;;;;;6.77;4.20;;;19.40;99.90;;;;;;5011579;28;20462;-79
2022/08/20 00:22:57;;;;;;;4.17;3.87;;;19.30;99.90;;;;;;5011477;28;20444;-79
2022/08/20 00:25:24;;;;;;;4.93;4.43;;;19.40;99.90;;;;;;4977515;28;20435;-79
2022/08/20 00:27:50;;;;;;;4.67;4.27;;;19.40;99.90;;;;;;5010988;28;20207;-78
2022/08/20 00:30:16;;;;;;;4.20;3.90;;;19.40;99.90;;;;;;4993138;28;20431;-78
2022/08/20 00:32:51;;;;;;;4.43;4.03;;;19.40;99.90;;;;;;4993257;28;20204;-77
2022/08/20 00:35:20;;;;;;;6.30;4.43;;;19.30;99.90;;;;;;4992550;28;20779;-80
2022/08/20 00:37:45;;;;;;;7.67;3.77;;;19.30;99.90;;;;;;5011396;28;20424;-80
2022/08/20 00:40:16;;;;;;;4.97;4.47;;;19.30;99.90;;;;;;4994665;28;20437;-80
2022/08/20 00:42:56;;;;;;;4.57;4.10;;;19.30;99.90;;;;;;5010901;28;20684;-80
2022/08/20 00:45:24;;;;;;;4.27;3.87;;;19.30;99.90;;;;;;5010716;28;20415;-80
2022/08/20 00:47:49;;;;;;;4.50;3.60;;;19.20;99.90;;;;;;4992914;28;20483;-80
2022/08/20 00:50:20;;;;;;;5.47;3.93;;;19.20;99.90;;;;;;4993305;28;21333;-80
2022/08/20 00:52:49;;;;;;;4.47;3.50;;;19.20;99.90;;;;;;5010553;28;20208;-76
2022/08/20 00:55:18;;;;;;;3.80;3.50;;;19.20;99.90;;;;;;5010474;28;20423;-79
2022/08/20 00:57:46;;;;;;;4.40;3.83;;;19.20;99.90;;;;;;4993021;28;20446;-75
2022/08/20 01:00:18;;;;;;;5.50;3.53;;;19.20;99.90;;;;;;5010471;28;20427;-75
2022/08/20 01:02:45;;;;;;;3.73;3.43;;;19.20;99.90;;;;;;5010358;28;20451;-75
2022/08/20 01:05:11;;;;;;;3.70;3.50;;;19.20;99.90;;;;;;5010948;28;20429;-75
2022/08/20 01:07:37;;;;;;;3.03;2.83;;;19.10;99.90;;;;;;4992721;28;20501;-75
2022/08/20 01:10:16;;;;;;;3.87;3.57;;;19.20;99.90;;;;;;5010217;28;20419;-75
2022/08/20 01:12:45;;;;;;;3.00;2.80;;;19.10;99.90;;;;;;5009947;28;20462;-75
2022/08/20 01:15:14;;;;;;;3.40;2.80;;;19.10;99.90;;;;;;5010061;28;20968;-75
2022/08/20 01:17:44;;;;;;;4.90;3.10;;;19.10;99.90;;;;;;5010018;28;20419;-75
2022/08/20 01:20:35;;;;;;;3.50;3.20;;;19.20;99.90;;;;;;5010071;28;20422;-75
2022/08/20 01:23:31;;;;;;;3.13;2.93;;;19.20;99.90;;;;;;4999112;28;20452;-78
2022/08/20 01:26:20;;;;;;;3.37;2.77;;;19.20;99.90;;;;;;5011480;28;20491;-80
2022/08/20 01:28:51;;;;;;;3.03;2.73;;;19.10;99.90;;;;;;5010526;28;20769;-81
2022/08/20 01:31:26;;;;;;;3.33;2.60;;;19.10;99.90;;;;;;4992536;28;20416;-81
2022/08/20 01:33:53;;;;;;;2.70;2.50;;;19.10;99.90;;;;;;5010359;28;20476;-80
2022/08/20 01:36:29;;;;;;;2.53;2.33;;;19.00;99.90;;;;;;5010397;28;20408;-77
2022/08/20 01:38:55;;;;;;;2.93;2.73;;;19.00;99.90;;;;;;5009922;28;20408;-78
2022/08/20 01:41:40;;;;;;;2.90;2.60;;;19.00;99.90;;;;;;4976389;28;20432;-79
2022/08/20 01:44:06;;;;;;;2.53;2.33;;;19.00;99.90;;;;;;4992511;28;20966;-79
2022/08/20 01:46:37;;;;;;;4.17;2.70;;;19.00;99.90;;;;;;5010132;28;20448;-78
2022/08/20 01:49:18;;;;;;;3.33;3.03;;;18.90;99.90;;;;;;5009929;28;20196;-79
2022/08/20 01:51:45;;;;;;;3.10;2.90;;;18.90;99.90;;;;;;4994140;28;20797;-79
2022/08/20 01:54:11;;;;;;;3.50;2.70;;;18.80;99.90;;;;;;5010575;28;20423;-79
2022/08/20 01:56:52;;;;;;;3.93;2.67;;;18.80;99.90;;;;;;4992652;28;20419;-79
2022/08/20 01:59:18;;;;;;;2.77;2.57;;;18.70;99.90;;;;;;4992802;28;20231;-79
2022/08/20 02:01:43;;;;;;;2.87;2.67;;;18.70;99.90;;;;;;4992431;28;20506;-79
2022/08/20 02:04:10;;;;;;;2.80;2.60;;;18.70;99.90;;;;;;5010932;28;20181;-79
2022/08/20 02:06:42;;;;;;;3.63;3.33;;;18.80;99.90;;;;;;4992983;28;20424;-79
2022/08/20 02:09:09;;;;;;;4.07;3.50;;;18.80;99.90;;;;;;4993324;28;20525;-79
2022/08/20 02:11:35;;;;;;;6.10;3.17;;;18.80;99.90;;;;;;4992695;28;20451;-78
2022/08/20 02:14:02;;;;;;;3.20;2.83;;;18.80;99.90;;;;;;4992573;28;20447;-77
2022/08/20 02:16:31;;;;;;;2.63;2.43;;;18.70;99.90;;;;;;4992475;28;20428;-79
2022/08/20 02:19:01;;;;;;;4.73;2.70;;;18.70;99.90;;;;;;5010455;28;20432;-79
2022/08/20 02:21:31;;;;;;;3.30;3.00;;;18.80;99.90;;;;;;5010436;28;20423;-79
2022/08/20 02:23:57;;;;;;;3.30;3.00;;;18.80;99.90;;;;;;4992815;28;20519;-79
2022/08/20 02:26:25;;;;;;;3.10;2.90;;;18.90;99.90;;;;;;5010344;28;20514;-78
2022/08/20 02:28:52;;;;;;;3.67;3.30;;;18.80;99.90;;;;;;5009899;28;20540;-79
2022/08/20 02:31:19;;;;;;;3.43;3.13;;;18.80;99.90;;;;;;4992461;28;20428;-79
2022/08/20 02:33:45;;;;;;;3.53;3.23;;;18.90;99.90;;;;;;5010511;28;20537;-79
2022/08/20 02:36:12;;;;;;;5.70;2.80;;;18.80;99.90;;;;;;4992366;28;20531;-78
2022/08/20 02:38:39;;;;;;;3.20;2.93;;;18.80;99.90;;;;;;4991698;28;20194;-77
2022/08/20 02:41:05;;;;;;;3.23;2.90;;;18.80;99.90;;;;;;4991682;28;20527;-77
2022/08/20 02:43:31;;;;;;;4.20;2.90;;;18.80;99.90;;;;;;4991570;28;20448;-79
2022/08/20 02:45:58;;;;;;;4.40;3.53;;;18.70;99.90;;;;;;4991849;28;20428;-78
2022/08/20 02:48:23;;;;;;;2.43;2.23;;;18.70;99.90;;;;;;5012280;28;20207;-80
2022/08/20 02:50:53;;;;;;;3.83;3.20;;;18.70;99.90;;;;;;5001013;28;20435;-80
2022/08/20 02:53:20;;;;;;;5.10;3.33;;;18.60;99.90;;;;;;5017443;28;20189;-77
2022/08/20 02:55:45;;;;;;;5.50;3.27;;;18.60;99.90;;;;;;5034542;28;20435;-81
2022/08/20 02:58:11;;;;;;;2.97;2.67;;;18.60;99.90;;;;;;4991287;28;20964;-76
2022/08/20 03:00:38;;;;;;;3.87;3.43;;;18.60;99.90;;;;;;4995524;28;20272;-77
2022/08/20 03:03:06;;;;;;;5.33;3.33;;;18.60;99.90;;;;;;5012962;28;20487;-77
2022/08/20 03:05:32;;;;;;;3.50;3.20;;;18.60;99.90;;;;;;5013167;28;20509;-77
2022/08/20 03:07:58;;;;;;;3.27;2.97;;;18.60;99.90;;;;;;5000168;28;20541;-79
2022/08/20 03:10:32;;;;;;;3.40;3.10;;;18.60;99.90;;;;;;5024750;28;20511;-79
2022/08/20 03:12:59;;;;;;;5.13;3.37;;;18.60;99.90;;;;;;5028641;28;20446;-79
2022/08/20 03:15:26;;;;;;;5.20;4.00;;;18.50;99.90;;;;;;5006001;28;20424;-80
2022/08/20 03:17:51;;;;;;;3.03;2.80;;;18.50;99.90;;;;;;5015096;28;20415;-76
2022/08/20 03:20:17;;;;;;;6.23;3.10;;;18.50;99.90;;;;;;5012304;28;20794;-76
2022/08/20 03:22:43;;;;;;;3.73;2.93;;;18.50;99.90;;;;;;4994439;28;20208;-76
2022/08/20 03:25:09;;;;;;;3.33;3.13;;;18.50;99.90;;;;;;4982018;28;20501;-81
2022/08/20 03:27:35;;;;;;;3.57;3.27;;;18.40;99.90;;;;;;5021917;28;20188;-80
2022/08/20 03:30:01;;;;;;;9.20;3.37;;;18.50;99.90;;;;;;5022290;28;20471;-80
2022/08/20 03:32:26;;;;;;;4.77;3.57;;;18.50;99.90;;;;;;5006011;28;20473;-81
2022/08/20 03:34:52;;;;;;;4.20;3.50;;;18.50;99.90;;;;;;4989716;28;20189;-79
2022/08/20 03:37:18;;;;;;;3.77;3.37;;;18.50;99.90;;;;;;5022432;28;20267;-80
2022/08/20 03:39:43;;;;;;;3.60;3.30;;;18.40;99.90;;;;;;5002554;28;20236;-80
2022/08/20 03:42:09;;;;;;;4.93;3.90;;;18.50;99.90;;;;;;5002719;28;20247;-79
2022/08/20 03:44:35;;;;;;;4.07;3.03;;;18.50;99.90;;;;;;5021188;28;20188;-80
2022/08/20 03:47:06;;;;;;;5.33;3.40;;;18.40;99.90;;;;;;5020685;28;20274;-80
2022/08/20 03:49:32;;;;;;;5.00;3.47;;;18.50;99.90;;;;;;5001442;28;20463;-81
2022/08/20 03:52:00;;;;;;;5.10;3.43;;;18.50;99.90;;;;;;5002838;28;20449;-80
2022/08/20 03:54:25;;;;;;;3.70;3.40;;;18.60;99.90;;;;;;4987522;28;20439;-79
2022/08/20 03:56:51;;;;;;;5.10;4.30;;;18.60;99.90;;;;;;5020038;28;20414;-81
2022/08/20 03:59:17;;;;;;;4.47;3.90;;;18.60;99.90;;;;;;5000573;28;20185;-81
2022/08/20 04:01:43;;;;;;;4.70;4.20;;;18.60;99.90;;;;;;4995969;28;20803;-79
2022/08/20 04:04:09;;;;;;;4.17;3.83;;;18.60;99.90;;;;;;4995772;28;20716;-80
2022/08/20 04:06:35;;;;;;;6.10;4.70;;;18.60;99.90;;;;;;5013217;28;20426;-80
2022/08/20 04:09:00;;;;;;;4.30;3.67;;;18.60;99.90;;;;;;4994274;28;20477;-80
2022/08/20 04:11:26;;;;;;;5.00;3.60;;;18.60;99.90;;;;;;4978368;28;20188;-77
2022/08/20 04:13:51;;;;;;;6.40;4.33;;;18.70;99.90;;;;;;4993842;28;20284;-78
2022/08/20 04:16:17;;;;;;;4.20;3.80;;;18.60;99.90;;;;;;5012154;28;20193;-79
2022/08/20 04:18:43;;;;;;;5.63;3.60;;;18.60;99.90;;;;;;4994563;28;20192;-80
2022/08/20 04:21:08;;;;;;;4.50;4.10;;;18.70;99.90;;;;;;4977971;28;20434;-78
2022/08/20 04:23:34;;;;;;;4.30;3.90;;;18.70;99.90;;;;;;5011839;28;20223;-78
2022/08/20 04:26:00;;;;;;;5.10;3.83;;;18.80;99.90;;;;;;4994156;28;20209;-81
2022/08/20 04:28:27;;;;;;;5.73;4.43;;;18.70;99.90;;;;;;4994038;28;20207;-80
2022/08/20 04:30:58;;;;;;;4.30;3.90;;;18.80;99.90;;;;;;5011994;28;20180;-79
2022/08/20 04:33:26;;;;;;;4.90;3.77;;;18.80;99.90;;;;;;5012387;28;20787;-82
2022/08/20 04:35:53;;;;;;;4.30;3.90;;;18.80;99.90;;;;;;4998968;28;20438;-81
2022/08/20 04:38:21;;;;;;;5.43;4.30;;;18.80;99.90;;;;;;5019038;28;20435;-80
2022/08/20 04:40:56;;;;;;;5.13;4.00;;;18.80;99.90;;;;;;5001083;28;20485;-80
2022/08/20 04:43:30;;;;;;;6.20;4.30;;;18.80;99.90;;;;;;5015283;28;20432;-79
2022/08/20 04:45:58;;;;;;;4.47;4.17;;;18.80;99.90;;;;;;4996566;28;20453;-78
2022/08/20 04:48:26;;;;;;;5.13;4.00;;;18.80;99.90;;;;;;5014668;28;20464;-79
2022/08/20 04:50:52;;;;;;;4.43;4.03;;;18.80;99.90;;;;;;5015114;28;20447;-80
2022/08/20 04:53:20;;;;;;;4.80;4.40;;;18.70;99.90;;;;;;4996256;28;20451;-80
2022/08/20 04:55:46;;;;;;;5.83;4.00;;;18.80;99.90;;;;;;5014611;28;20427;-82
2022/08/20 04:58:16;;;;;;;7.10;4.80;;;18.80;99.90;;;;;;4996282;28;20431;-83
2022/08/20 05:00:49;;;;;;;4.33;3.87;;;18.80;99.90;;;;;;4995174;28;20419;-80
2022/08/20 05:03:16;;;;;;;4.63;4.23;;;18.80;99.90;;;;;;4993883;28;21164;-83
2022/08/20 05:05:43;;;;;;;5.63;4.40;;;18.80;99.90;;;;;;4978173;28;20435;-81
2022/08/20 05:08:10;;;;;;;5.60;4.97;;;18.80;99.90;;;;;;4993235;28;20560;-82
2022/08/20 05:10:37;;;;;;;6.37;4.80;;;18.80;99.90;;;;;;4977430;28;20441;-83
2022/08/20 05:13:03;;;;;;;6.30;4.43;;;18.80;99.90;;;;;;4994597;28;20478;-84
2022/08/20 05:15:29;;;;;;;4.67;4.27;;;18.80;99.90;;;;;;4995539;28;20426;-83
2022/08/20 05:17:59;;;;;;;5.27;4.77;;;18.80;99.90;;;;;;4977675;28;21004;-80
2022/08/20 05:20:30;;;;;;;6.90;4.77;;;18.80;99.90;;;;;;5010864;28;20171;-78
2022/08/20 05:22:56;;;;;;;5.57;4.90;;;18.80;99.90;;;;;;4994062;28;20485;-79
2022/08/20 05:25:22;;;;;;;4.97;4.07;;;18.90;99.90;;;;;;4993382;28;20970;-79
2022/08/20 05:27:48;;;;;;;5.23;4.83;;;18.80;99.90;;;;;;5011018;28;20981;-77
2022/08/20 05:30:14;;;;;;;6.60;4.80;;;18.80;99.90;;;;;;5010713;28;20507;-77
2022/08/20 05:32:39;;;;;;;5.37;4.87;;;18.90;99.90;;;;;;5010487;28;20443;-77
2022/08/20 05:35:08;;;;;;;5.37;4.80;;;18.80;99.90;;;;;;5010467;28;20515;-77
2022/08/20 05:37:40;;;;;;;6.73;4.67;;;18.90;99.90;;;;;;5010404;28;20268;-77
2022/08/20 05:40:13;;;;;;;5.10;4.63;;;18.90;99.90;;;;;;4992673;28;20414;-77
2022/08/20 05:42:39;;;;;;;5.33;4.83;;;18.90;99.90;;;;;;5010234;28;20447;-77
2022/08/20 05:45:07;;;;;;;5.90;4.60;;;18.80;99.90;;;;;;5010060;28;20430;-76
2022/08/20 05:47:36;;;;;;;5.63;4.80;;;18.90;99.90;;;;;;4992196;28;20963;-77
2022/08/20 05:50:04;;;;;;;5.40;4.90;;;18.80;99.90;;;;;;5009697;28;20476;-77
2022/08/20 05:52:29;;;;;;;4.60;4.20;;;18.80;99.90;;;;;;5010001;28;20474;-77
2022/08/20 05:54:55;;;;;;;8.27;5.23;;;18.80;99.90;;;;;;4992036;28;20452;-76
2022/08/20 05:57:21;;;;;;;5.37;4.60;;;18.80;99.90;;;;;;5009644;28;20728;-76
2022/08/20 05:59:47;;;;;;;4.50;4.13;;;18.90;99.90;;;;;;4991969;28;20189;-76
2022/08/20 06:04:58;;;;;;;5.53;4.27;;;18.90;99.90;;;;;;4978995;28;20755;-77
2022/08/20 06:07:24;;;;;;;5.47;4.70;;;18.90;99.90;;;;;;5009924;28;20424;-76
2022/08/20 06:09:50;;;;;;;5.53;4.90;;;18.90;99.90;;;;;;4992043;28;20219;-77
2022/08/20 06:12:16;;;;;;;5.93;4.70;;;18.90;99.90;;;;;;5009464;28;20576;-77
2022/08/20 06:14:43;;;;;;;4.70;4.30;;;19.00;99.90;;;;;;5009689;28;20204;-76
2022/08/20 06:17:12;;;;;;;6.73;4.63;;;19.00;99.90;;;;;;4992202;28;20420;-77
2022/08/20 06:19:37;;;;;;;6.30;5.33;;;19.00;99.90;;;;;;5009443;28;20429;-76
2022/08/20 06:22:05;;;;;;;6.60;4.83;;;19.00;99.90;;;;;;5009480;28;20522;-78
2022/08/20 06:24:31;;;;;;;6.07;5.23;;;19.00;99.90;;;;;;5009343;28;20196;-77
2022/08/20 06:26:58;;;;;;;6.20;5.50;;;19.10;99.90;;;;;;4991733;28;20439;-76
2022/08/20 06:29:25;;;;;;;6.67;5.43;;;19.10;99.90;;;;;;4991669;28;20468;-77
2022/08/20 06:31:50;;;;;;;8.07;5.53;;;19.10;99.90;;;;;;5008975;28;20440;-76
2022/08/20 06:34:17;;;;;;;7.43;5.33;;;19.10;99.90;;;;;;5009244;28;20455;-77
2022/08/20 06:36:45;;;;;;;6.50;5.17;;;19.20;99.90;;;;;;5009171;28;20650;-77
2022/08/20 06:39:11;;;;;;;7.60;5.40;;;19.20;99.90;;;;;;4991752;28;20522;-77
2022/08/20 06:41:37;;;;;;;4.97;3.97;;;19.30;99.90;;;;;;5009146;28;20489;-77
2022/08/20 06:44:05;;;;;;;9.97;5.27;;;19.40;99.90;;;;;;5008984;28;20465;-77
2022/08/20 06:46:31;;;;;;;5.13;4.20;;;19.40;99.90;;;;;;4991528;28;20428;-77
2022/08/20 06:48:56;;;;;;;6.37;4.70;;;19.50;99.90;;;;;;5009151;28;20504;-77
2022/08/20 06:51:22;;;;;;;5.70;5.20;;;19.50;99.90;;;;;;5009015;28;20264;-77
2022/08/20 06:53:48;;;;;;;5.50;5.00;;;19.60;99.90;;;;;;5009024;28;20558;-78
2022/08/20 06:56:13;;;;;;;9.90;5.07;;;19.60;99.90;;;;;;5009223;28;20180;-77
2022/08/20 06:58:39;;;;;;;5.67;5.10;;;19.60;99.90;;;;;;4991107;28;20351;-77
2022/08/20 07:01:08;;;;;;;5.83;5.17;;;19.60;99.90;;;;;;5009208;28;20229;-77
2022/08/20 07:03:33;;;;;;;6.77;5.80;;;19.70;99.90;;;;;;4991251;28;20223;-77
2022/08/20 07:05:59;;;;;;;5.63;5.13;;;19.70;99.90;;;;;;5009096;28;20435;-78
2022/08/20 07:08:25;;;;;;;5.93;5.23;;;19.80;99.90;;;;;;4991279;28;20224;-77
2022/08/20 07:10:50;;;;;;;6.30;5.30;;;19.80;99.90;;;;;;4991335;28;20185;-77
2022/08/20 07:13:16;;;;;;;4.93;4.53;;;19.90;99.90;;;;;;5009050;28;20201;-77
2022/08/20 07:15:43;;;;;;;8.10;5.37;;;20.00;99.90;;;;;;5009055;28;20220;-78
2022/08/20 07:18:10;;;;;;;5.73;4.70;;;20.00;99.90;;;;;;4991755;28;20202;-77
2022/08/20 07:20:39;;;;;;;6.57;5.00;;;20.10;99.90;;;;;;5009446;28;20432;-77
2022/08/20 07:23:06;;;;;;;7.27;5.30;;;20.20;99.90;;;;;;5009776;28;20534;-80
2022/08/20 07:25:32;;;;;;;8.20;5.30;;;20.20;99.90;;;;;;4991916;28;20428;-82
2022/08/20 07:28:06;;;;;;;5.23;4.73;;;20.20;99.90;;;;;;4975701;28;20496;-81
2022/08/20 07:33:16;;;;;;;6.43;5.83;;;20.30;99.90;;;;;;5009270;28;20441;-78
2022/08/20 07:35:42;;;;;;;6.40;5.47;;;20.30;99.90;;;;;;5009385;28;20423;-78
2022/08/20 07:38:17;;;;;;;6.53;4.63;;;20.40;99.90;;;;;;5009233;28;20193;-79
2022/08/20 07:40:43;;;;;;;10.40;5.17;;;20.50;99.90;;;;;;5009105;28;20433;-77
2022/08/20 07:43:09;;;;;;;6.93;5.00;;;20.40;99.90;;;;;;4991321;28;20524;-78
2022/08/20 07:45:36;;;;;;;5.87;5.33;;;20.50;99.90;;;;;;5010947;28;20424;-77
2022/08/20 07:48:10;;;;;;;6.50;5.90;;;20.50;99.90;;;;;;4993370;28;20876;-77
2022/08/20 07:50:37;;;;;;;5.33;4.93;;;20.50;99.90;;;;;;5011156;28;20498;-77
2022/08/20 07:53:04;;;;;;;6.83;5.57;;;20.60;99.90;;;;;;4993576;28;20490;-78
2022/08/20 07:55:30;;;;;;;5.30;4.80;;;20.60;99.90;;;;;;5011261;28;20419;-77
2022/08/20 07:57:59;;;;;;;5.83;5.20;;;20.70;99.90;;;;;;5011311;28;20422;-78
2022/08/20 08:00:26;;;;;;;6.33;5.53;;;20.80;99.90;;;;;;5011162;28;20500;-78
2022/08/20 08:02:52;;;;;;;8.50;6.10;;;21.00;99.90;;;;;;4993600;28;20460;-77
2022/08/20 08:05:17;;;;;;;6.17;5.60;;;20.80;99.90;;;;;;5011257;28;20437;-78
2022/08/20 08:07:44;;;;;;;7.50;5.50;;;21.00;99.90;;;;;;5011143;28;20183;-77
2022/08/20 08:10:17;;;;;;;8.80;5.50;;;21.00;99.90;;;;;;5011676;28;20235;-78
2022/08/20 08:12:47;;;;;;;6.73;5.83;;;21.20;99.90;;;;;;4993150;28;20451;-78
2022/08/20 08:15:17;;;;;;;7.77;5.57;;;21.40;99.90;;;;;;5010745;28;20959;-77
2022/08/20 08:17:47;;;;;;;8.07;5.10;;;21.50;99.90;;;;;;4993683;28;20422;-79
2022/08/20 08:20:14;;;;;;;6.80;4.93;;;21.70;99.90;;;;;;4992868;28;20998;-78
2022/08/20 08:22:41;;;;;;;5.53;5.00;;;21.70;99.90;;;;;;5010889;28;20449;-78
2022/08/20 08:25:12;;;;;;;5.13;4.50;;;21.80;99.90;;;;;;4993244;28;20478;-78
2022/08/20 08:27:39;;;;;;;5.20;4.70;;;21.80;99.90;;;;;;4992727;28;20444;-77
2022/08/20 08:30:05;;;;;;;7.30;5.67;;;21.90;99.90;;;;;;5010396;28;21039;-77
2022/08/20 08:32:31;;;;;;;5.20;4.50;;;22.00;99.90;;;;;;5010392;28;20886;-79
2022/08/20 08:34:57;;;;;;;8.40;4.70;;;22.20;99.90;;;;;;4992613;28;20459;-78
2022/08/20 08:37:23;;;;;;;3.20;2.90;;;22.30;99.90;;;;;;5010588;28;20188;-79
2022/08/20 08:39:49;;;;;;;5.20;3.53;;;22.40;99.90;;;;;;5010603;28;20497;-78
2022/08/20 08:42:25;;;;;;;5.13;4.40;;;22.20;99.90;;;;;;5010390;28;20944;-78
2022/08/20 08:44:53;;;;;;;7.53;3.97;;;22.20;99.90;;;;;;4992423;28;20186;-78
2022/08/20 08:47:31;;;;;;;5.67;3.93;;;22.20;99.90;;;;;;5010212;28;20430;-78
2022/08/20 08:49:57;;;;;;;4.10;3.70;;;22.30;99.90;;;;;;4992406;28;20459;-77
2022/08/20 08:52:28;;;;;;;5.30;4.40;;;22.40;99.90;;;;;;5010197;28;21322;-78
2022/08/20 08:54:57;;;;;;;4.57;4.17;;;22.50;99.90;;;;;;5009817;28;20443;-78
2022/08/20 08:57:24;;;;;;;5.70;3.50;;;22.70;99.90;;;;;;4975552;28;20436;-78
2022/08/20 08:59:56;;;;;;;5.47;4.10;;;22.80;99.90;;;;;;4992472;28;20487;-78
2022/08/20 09:02:27;;;;;;;3.70;3.10;;;22.90;99.90;;;;;;4992073;28;20480;-77
2022/08/20 09:04:56;;;;;;;4.20;3.43;;;23.00;99.90;;;;;;4976584;28;20437;-77
2022/08/20 09:07:26;;;;;;;3.80;3.50;;;23.10;99.90;;;;;;4992641;28;20420;-77
2022/08/20 09:09:52;;;;;;;6.47;3.80;;;23.20;99.90;;;;;;5009814;28;20518;-78
2022/08/20 09:12:21;;;;;;;3.93;3.53;;;23.40;99.90;;;;;;5009748;28;20441;-77
2022/08/20 09:14:48;;;;;;;3.50;3.10;;;23.50;99.90;;;;;;5009661;28;20543;-78
2022/08/20 09:17:15;;;;;;;7.80;3.67;;;23.80;99.90;;;;;;5009557;28;20437;-78
2022/08/20 09:19:40;;;;;;;5.70;3.37;;;24.00;99.90;;;;;;5009742;28;20429;-77
2022/08/20 09:22:12;;;;;;;4.80;3.40;;;24.00;99.90;;;;;;5009943;28;20445;-78
2022/08/20 09:24:39;;;;;;;8.17;4.57;;;24.10;99.90;;;;;;5009501;28;20205;-77
2022/08/20 09:27:05;;;;;;;4.33;3.93;;;24.20;99.90;;;;;;4992227;28;20433;-77
2022/08/20 09:29:31;;;;;;;4.20;3.80;;;24.30;99.90;;;;;;5009542;28;20518;-76
2022/08/20 09:32:12;;;;;;;3.70;3.40;;;24.30;99.90;;;;;;5009444;28;20437;-76
2022/08/20 09:34:41;;;;;;;4.00;3.50;;;24.10;99.90;;;;;;5009548;28;20480;-76
2022/08/20 09:37:07;;;;;;;4.27;3.77;;;24.00;99.90;;;;;;5009628;28;20439;-75
2022/08/20 09:39:34;;;;;;;8.07;3.90;;;23.90;99.90;;;;;;4991974;28;20467;-76
2022/08/20 09:42:30;;;;;;;3.90;3.50;;;23.90;99.90;;;;;;5009617;28;20479;-77
2022/08/20 09:44:56;;;;;;;7.40;4.00;;;24.00;99.90;;;;;;5007895;28;20434;-77
2022/08/20 09:47:22;;;;;;;3.50;3.20;;;24.10;99.90;;;;;;5009332;28;20434;-77
2022/08/20 09:49:48;;;;;;;4.63;4.10;;;24.30;99.90;;;;;;5009386;28;20873;-76
2022/08/20 09:52:29;;;;;;;4.57;3.60;;;24.10;99.90;;;;;;5009375;28;20436;-76
2022/08/20 09:55:01;;;;;;;5.63;4.27;;;24.40;99.90;;;;;;5009702;28;20169;-74
2022/08/20 09:57:28;;;;;;;5.10;4.60;;;25.20;99.90;;;;;;5012382;28;20424;-78
2022/08/20 09:59:59;;;;;;;4.07;3.77;;;25.70;99.90;;;;;;5024638;28;20419;-79
2022/08/20 10:02:25;;;;;;;5.10;3.80;;;26.30;99.90;;;;;;5001267;28;20478;-79
2022/08/20 10:04:51;;;;;;;3.60;3.30;;;26.80;99.90;;;;;;5018489;28;20410;-78
2022/08/20 10:07:17;;;;;;;6.73;3.37;;;26.90;99.90;;;;;;5035424;28;20430;-79
2022/08/20 10:09:43;;;;;;;3.90;3.60;;;27.10;99.90;;;;;;4999923;28;20205;-77
2022/08/20 10:12:09;;;;;;;4.77;3.70;;;27.50;99.90;;;;;;4993220;28;20454;-78
2022/08/20 10:14:34;;;;;;;3.57;3.37;;;27.50;99.90;;;;;;5010526;28;20189;-77
2022/08/20 10:17:02;;;;;;;5.03;3.53;;;27.00;99.90;;;;;;5009986;28;20455;-78
2022/08/20 10:19:30;;;;;;;3.00;2.80;;;26.80;99.90;;;;;;5010485;28;20239;-77
2022/08/20 10:21:56;;;;;;;3.47;3.17;;;27.00;99.90;;;;;;4992375;28;20490;-77
2022/08/20 10:24:23;;;;;;;9.30;3.60;;;26.90;99.90;;;;;;5009921;28;20427;-77
2022/08/20 10:26:49;;;;;;;3.90;3.60;;;27.10;99.90;;;;;;5009993;28;20428;-77
2022/08/20 10:29:15;;;;;;;3.60;3.30;;;26.80;99.90;;;;;;5009159;28;20517;-77
2022/08/20 10:31:41;;;;;;;4.47;4.07;;;26.40;99.90;;;;;;5008551;28;20514;-77
2022/08/20 10:34:07;;;;;;;5.40;4.20;;;26.40;99.90;;;;;;5008635;28;20511;-78
2022/08/20 10:36:33;;;;;;;6.27;4.53;;;26.80;99.90;;;;;;4990888;28;20431;-78
2022/08/20 10:38:59;;;;;;;3.90;3.60;;;27.00;99.90;;;;;;5008826;28;20425;-78
2022/08/20 10:41:24;;;;;;;3.70;3.40;;;27.90;99.90;;;;;;5008971;28;20188;-77
2022/08/20 10:43:50;;;;;;;2.90;2.70;;;27.70;99.90;;;;;;4975376;28;20715;-77
2022/08/20 10:46:16;;;;;;;3.83;3.53;;;27.80;99.90;;;;;;5009322;28;20234;-78
2022/08/20 10:48:42;;;;;;;3.00;2.80;;;28.40;99.90;;;;;;4991656;28;20239;-77
2022/08/20 10:51:07;;;;;;;5.90;2.13;;;28.10;99.90;;;;;;5008936;28;20412;-77
2022/08/20 10:53:34;;;;;;;5.23;1.97;;;26.90;99.90;;;;;;5008872;28;20201;-77
2022/08/20 10:55:59;;;;;;;21.80;5.50;;;25.80;99.90;;;;;;5009664;28;20179;-78
2022/08/20 10:58:25;;;;;;;6.30;4.20;;;24.70;99.90;;;;;;4974949;28;20424;-78
2022/08/20 11:00:52;;;;;;;20.07;5.53;;;23.50;99.90;;;;;;4991255;28;20235;-77
2022/08/20 11:03:18;;;;;;;4.20;3.70;;;22.90;99.90;;;;;;5008542;28;20262;-77
2022/08/20 11:05:44;;;;;;;5.53;3.40;;;22.50;99.90;;;;;;4990947;28;20458;-77
2022/08/20 11:08:10;;;;;;;3.87;3.30;;;22.20;99.90;;;;;;5008118;28;20836;-77
2022/08/20 11:10:37;;;;;;;6.63;3.80;;;21.90;99.90;;;;;;5008391;28;20423;-77
2022/08/20 11:13:04;;;;;;;4.30;3.90;;;21.50;99.90;;;;;;5008166;28;20437;-77
2022/08/20 11:15:32;;;;;;;7.80;3.30;;;21.30;99.90;;;;;;5008982;28;20409;-77
2022/08/20 11:17:58;;;;;;;4.83;4.23;;;21.20;99.90;;;;;;5008411;28;20424;-77
2022/08/20 11:20:25;;;;;;;5.63;4.10;;;21.10;99.90;;;;;;5011760;28;20415;-77
2022/08/20 11:22:51;;;;;;;4.13;2.83;;;21.00;99.90;;;;;;5012397;28;20718;-77
2022/08/20 11:25:18;;;;;;;4.90;3.80;;;21.00;99.90;;;;;;4994414;28;20429;-77
2022/08/20 11:27:46;;;;;;;4.70;3.57;;;20.80;99.90;;;;;;4994204;28;20428;-77
2022/08/20 11:30:16;;;;;;;18.23;6.30;;;20.70;99.90;;;;;;5011905;28;21032;-77
2022/08/20 11:32:42;;;;;;;25.07;6.33;;;20.70;99.90;;;;;;5012627;28;20432;-77
2022/08/20 11:35:08;;;;;;;9.23;3.70;;;20.40;99.90;;;;;;5012234;28;20421;-77
2022/08/20 11:37:34;;;;;;;11.03;4.07;;;20.20;99.90;;;;;;5012145;28;20181;-77
2022/08/20 11:40:00;;;;;;;40.40;4.63;;;20.00;99.90;;;;;;4994550;28;20424;-77
2022/08/20 11:42:26;;;;;;;5.30;2.60;;;19.70;99.90;;;;;;4994355;28;20450;-77
2022/08/20 11:44:51;;;;;;;2.50;1.47;;;19.60;99.90;;;;;;4994191;28;20200;-78
2022/08/20 11:47:26;;;;;;;5.20;2.00;;;19.30;99.90;;;;;;4994017;28;20235;-77
2022/08/20 11:50:08;;;;;;;2.67;2.47;;;19.10;99.90;;;;;;4977863;28;20216;-77
2022/08/20 11:52:33;;;;;;;2.20;2.00;;;19.20;99.90;;;;;;4994641;28;20436;-78
2022/08/20 11:54:59;;;;;;;3.00;1.80;;;19.20;99.90;;;;;;5011901;28;20466;-77
2022/08/20 11:57:28;;;;;;;3.50;1.90;;;19.30;99.90;;;;;;4978007;28;20189;-77
2022/08/20 11:59:55;;;;;;;4.13;2.47;;;19.40;99.90;;;;;;5012581;28;20181;-77
2022/08/20 12:02:21;;;;;;;2.23;2.00;;;19.40;99.90;;;;;;5012423;28;20455;-77
2022/08/20 12:04:47;;;;;;;2.20;2.10;;;19.50;99.90;;;;;;5012669;28;20422;-77
2022/08/20 12:07:21;;;;;;;7.50;2.57;;;19.60;99.90;;;;;;5012433;28;20188;-77
2022/08/20 12:09:47;;;;;;;2.17;1.97;;;19.60;99.90;;;;;;5011996;28;20498;-77
2022/08/20 12:12:14;;;;;;;2.33;2.23;;;19.50;99.90;;;;;;5011778;28;20424;-77
2022/08/20 12:14:40;;;;;;;2.60;2.40;;;19.50;99.90;;;;;;5011599;28;20424;-77
2022/08/20 12:17:10;;;;;;;2.07;1.80;;;19.60;99.90;;;;;;5011777;28;20424;-77
2022/08/20 12:19:41;;;;;;;2.87;2.33;;;19.60;99.90;;;;;;5011340;28;20430;-77
2022/08/20 12:22:08;;;;;;;2.43;2.23;;;19.70;99.90;;;;;;5011369;28;20447;-77
2022/08/20 12:24:35;;;;;;;3.23;2.53;;;19.70;99.90;;;;;;4993547;28;20420;-77
2022/08/20 12:27:26;;;;;;;5.00;2.10;;;19.80;99.90;;;;;;5011265;28;20424;-77
2022/08/20 12:29:56;;;;;;;3.00;2.50;;;19.80;99.90;;;;;;5011193;28;20519;-77
2022/08/20 12:32:25;;;;;;;2.90;2.10;;;19.90;99.90;;;;;;5011474;28;20806;-77
2022/08/20 12:34:51;;;;;;;2.23;1.57;;;20.00;99.90;;;;;;4977437;28;20434;-77
2022/08/20 12:37:20;;;;;;;1.40;1.17;;;20.20;99.90;;;;;;5011392;28;20459;-77
2022/08/20 12:39:49;;;;;;;1.80;1.70;;;20.40;99.90;;;;;;5011323;28;20507;-77
2022/08/20 12:42:15;;;;;;;2.37;2.17;;;20.60;99.90;;;;;;4993758;28;20444;-77
2022/08/20 12:44:42;;;;;;;1.63;1.53;;;20.80;99.90;;;;;;5011214;28;20431;-77
2022/08/20 12:47:12;;;;;;;1.73;1.60;;;21.10;99.90;;;;;;5011220;28;20488;-77
2022/08/20 12:49:40;;;;;;;5.07;2.00;;;21.40;99.90;;;;;;5010700;28;20467;-77
2022/08/20 12:52:06;;;;;;;1.33;1.10;;;21.50;99.90;;;;;;5010729;28;20440;-77
2022/08/20 12:54:32;;;;;;;1.67;1.33;;;21.60;99.90;;;;;;4992524;28;20996;-77